Time;durP1;ratioP1;P1;durP2;ratioP2;P2;SDS_P1;SDS_P2;PMS_P1;PMS_P2;Temp;Humidity;BMP_temperature;BMP_pressure;BME280_temperature;BME280_humidity;BME280_pressure;Samples;Min_cycle;Max_cycle;Signal;HPM_P1;HPM_P2
2023/09/29 00:01:37;;;;;;;17.67;8.73;;;15.00;99.90;14.30;100762;;;;592790;241;24050;-76
2023/09/29 00:04:05;;;;;;;14.90;9.10;;;15.00;99.90;14.30;100761;;;;581253;245;24094;-76
2023/09/29 00:06:35;;;;;;;11.37;8.53;;;15.00;99.90;14.30;100761;;;;593214;236;24035;-77
2023/09/29 00:09:12;;;;;;;13.23;8.83;;;15.00;99.90;14.40;100763;;;;581589;244;24133;-77
2023/09/29 00:11:41;;;;;;;16.97;8.50;;;15.00;99.90;14.40;100759;;;;588799;244;24066;-75
2023/09/29 00:14:08;;;;;;;10.40;7.93;;;15.00;99.90;14.30;100750;;;;582470;246;24107;-76
2023/09/29 00:16:36;;;;;;;12.37;8.03;;;15.00;99.90;14.30;100747;;;;595001;241;24073;-76
2023/09/29 00:19:06;;;;;;;11.17;8.80;;;15.00;99.90;14.30;100746;;;;589287;242;24088;-76
2023/09/29 00:21:34;;;;;;;11.53;8.53;;;15.00;99.90;14.40;100758;;;;582782;246;24078;-76
2023/09/29 00:24:02;;;;;;;10.57;7.77;;;15.00;99.90;14.40;100745;;;;594683;241;24088;-76
2023/09/29 00:26:30;;;;;;;12.33;7.90;;;15.10;99.90;14.40;100737;;;;588872;244;24091;-76
2023/09/29 00:28:59;;;;;;;15.63;8.13;;;15.00;99.90;14.40;100743;;;;582533;246;24138;-76
2023/09/29 00:31:26;;;;;;;11.10;8.10;;;15.10;99.90;14.40;100743;;;;594668;241;24081;-76
2023/09/29 00:33:55;;;;;;;8.60;7.40;;;15.00;99.90;14.30;100745;;;;589040;243;24098;-76
2023/09/29 00:36:23;;;;;;;13.27;7.90;;;15.00;99.90;14.40;100737;;;;582543;246;24085;-76
2023/09/29 00:38:52;;;;;;;13.07;8.10;;;15.00;99.90;14.40;100742;;;;594271;241;24121;-77
2023/09/29 00:41:20;;;;;;;11.13;7.97;;;15.10;99.90;14.40;100740;;;;588597;243;24212;-77
2023/09/29 00:43:48;;;;;;;9.87;8.27;;;15.00;99.90;14.40;100740;;;;582283;246;24078;-76
2023/09/29 00:46:16;;;;;;;16.27;8.80;;;15.10;99.90;14.40;100748;;;;594656;241;24060;-76
2023/09/29 00:48:43;;;;;;;14.60;7.90;;;15.10;99.90;14.40;100746;;;;589030;243;24085;-76
2023/09/29 00:51:12;;;;;;;11.03;8.30;;;15.10;99.90;14.40;100754;;;;582601;246;24102;-76
2023/09/29 00:53:40;;;;;;;13.40;8.67;;;15.10;99.90;14.50;100749;;;;594732;241;24089;-77
2023/09/29 00:56:11;;;;;;;9.97;7.57;;;15.10;99.90;14.50;100750;;;;589021;243;24068;-76
2023/09/29 00:58:37;;;;;;;10.03;7.13;;;15.10;99.90;14.50;100746;;;;582888;244;24173;-77
2023/09/29 01:01:07;;;;;;;16.30;8.47;;;15.20;99.90;14.50;100740;;;;596081;235;24053;-76
2023/09/29 01:03:32;;;;;;;16.93;7.10;;;15.20;99.90;14.50;100735;;;;589646;243;24076;-75
2023/09/29 01:06:00;;;;;;;9.40;7.27;;;15.20;99.90;14.50;100737;;;;583303;240;24232;-77
2023/09/29 01:08:29;;;;;;;15.37;7.83;;;15.20;99.90;14.50;100733;;;;595287;236;24052;-77
2023/09/29 01:10:56;;;;;;;7.97;6.97;;;15.20;99.90;14.50;100725;;;;589048;243;24089;-77
2023/09/29 01:13:24;;;;;;;14.63;9.30;;;15.20;99.90;14.60;100726;;;;577622;240;35142;-77
2023/09/29 01:15:53;;;;;;;10.77;7.47;;;15.30;99.90;14.50;100725;;;;595286;241;24039;-77
2023/09/29 01:18:20;;;;;;;11.13;7.13;;;15.30;99.90;14.60;100721;;;;589199;243;24061;-77
2023/09/29 01:20:48;;;;;;;11.23;6.80;;;15.20;99.90;14.60;100723;;;;582929;246;24078;-77
2023/09/29 01:23:16;;;;;;;7.70;6.90;;;15.30;99.90;14.70;100721;;;;595027;241;24133;-76
2023/09/29 01:25:46;;;;;;;9.40;7.70;;;15.40;99.90;14.70;100717;;;;589349;242;24070;-76
2023/09/29 01:28:13;;;;;;;15.77;7.87;;;15.30;99.90;14.70;100726;;;;582710;246;24065;-76
2023/09/29 01:30:44;;;;;;;11.87;7.27;;;15.40;99.90;14.70;100717;;;;594868;241;24091;-76
2023/09/29 01:33:12;;;;;;;8.97;6.90;;;15.40;99.90;14.70;100722;;;;589220;244;24144;-77
2023/09/29 01:35:39;;;;;;;9.67;7.20;;;15.40;99.90;14.70;100716;;;;582679;246;24084;-76
2023/09/29 01:38:07;;;;;;;9.23;7.10;;;15.30;99.90;14.60;100714;;;;594669;241;24036;-76
2023/09/29 01:40:35;;;;;;;16.67;7.80;;;15.30;99.90;14.60;100715;;;;588493;243;24086;-76
2023/09/29 01:43:03;;;;;;;13.00;7.73;;;15.30;99.90;14.60;100721;;;;582180;246;24087;-76
2023/09/29 01:45:32;;;;;;;14.63;7.03;;;15.30;99.90;14.60;100733;;;;594236;241;24080;-76
2023/09/29 01:48:04;;;;;;;8.87;7.57;;;15.30;99.90;14.70;100733;;;;589086;243;24124;-75
2023/09/29 01:50:27;;;;;;;9.50;8.50;;;15.40;99.90;14.80;100730;;;;582419;246;24144;-76
2023/09/29 01:52:57;;;;;;;12.43;8.23;;;15.40;99.90;14.80;100738;;;;594694;241;24036;-75
2023/09/29 01:55:24;;;;;;;12.17;8.67;;;15.40;99.90;14.70;100726;;;;588840;244;24079;-77
2023/09/29 01:57:57;;;;;;;16.13;8.90;;;15.40;99.90;14.60;100733;;;;582552;246;24122;-77
2023/09/29 02:00:28;;;;;;;10.40;8.47;;;15.20;99.90;14.50;100740;;;;592890;242;24042;-75
2023/09/29 02:02:54;;;;;;;13.20;8.40;;;15.20;99.90;14.50;100740;;;;580924;247;24069;-76
2023/09/29 02:05:22;;;;;;;9.87;7.87;;;15.20;99.90;14.40;100739;;;;593358;236;24043;-76
2023/09/29 02:07:51;;;;;;;10.13;8.63;;;15.00;99.90;14.40;100736;;;;582506;241;24128;-76
2023/09/29 02:10:22;;;;;;;9.87;8.27;;;15.00;99.90;14.30;100733;;;;594771;239;24086;-75
2023/09/29 02:12:52;;;;;;;11.03;8.67;;;15.00;99.90;14.30;100734;;;;590010;242;24074;-77
2023/09/29 02:15:17;;;;;;;17.50;8.47;;;14.90;99.90;14.20;100744;;;;582483;246;24150;-76
2023/09/29 02:17:48;;;;;;;12.80;8.97;;;14.90;99.90;14.10;100735;;;;583053;246;24084;-76
2023/09/29 02:20:36;;;;;;;9.50;8.53;;;14.80;99.90;14.10;100747;;;;593721;241;24031;-77
2023/09/29 02:22:41;;;;;;;16.37;10.50;;;14.70;99.90;14.00;100739;;;;592070;242;24124;-76
2023/09/29 02:25:18;;;;;;;13.57;9.60;;;14.70;99.90;14.00;100733;;;;595294;239;24108;-76
2023/09/29 02:27:40;;;;;;;17.57;9.63;;;14.60;99.90;14.00;100728;;;;588995;243;24081;-77
2023/09/29 02:30:09;;;;;;;12.30;9.10;;;14.60;99.90;13.90;100722;;;;582367;246;24062;-76
2023/09/29 02:32:36;;;;;;;9.53;8.30;;;14.60;99.90;13.90;100726;;;;594395;236;24042;-77
2023/09/29 02:35:04;;;;;;;13.93;9.27;;;14.60;99.90;14.00;100719;;;;582224;245;24046;-76
2023/09/29 02:37:32;;;;;;;11.33;9.07;;;14.60;99.90;13.90;100718;;;;593235;239;24078;-76
2023/09/29 02:40:04;;;;;;;15.80;9.97;;;14.60;99.90;13.90;100717;;;;593408;239;24062;-76
2023/09/29 02:42:29;;;;;;;16.23;9.03;;;14.60;99.90;13.90;100716;;;;581211;247;24132;-75
2023/09/29 02:44:57;;;;;;;13.53;9.13;;;14.50;99.90;13.90;100723;;;;588728;244;24062;-75
2023/09/29 02:47:25;;;;;;;9.73;8.50;;;14.50;99.90;13.90;100710;;;;582249;246;24125;-77
2023/09/29 02:50:01;;;;;;;11.03;8.93;;;14.60;99.90;13.90;100710;;;;594699;236;24032;-75
2023/09/29 02:52:24;;;;;;;15.03;7.87;;;14.60;99.90;13.90;100710;;;;587894;244;24067;-75
2023/09/29 02:54:54;;;;;;;10.67;7.93;;;14.60;99.90;14.00;100714;;;;582400;246;24083;-76
2023/09/29 02:57:21;;;;;;;11.03;8.60;;;14.70;99.90;14.10;100716;;;;594673;241;24036;-75
2023/09/29 02:59:49;;;;;;;12.17;8.83;;;14.70;99.90;14.10;100705;;;;588989;244;24076;-75
2023/09/29 03:02:20;;;;;;;16.43;8.27;;;14.80;99.90;14.10;100705;;;;582558;240;24077;-76
2023/09/29 03:04:46;;;;;;;13.90;9.13;;;14.80;99.90;14.10;100699;;;;582317;246;24076;-75
2023/09/29 03:07:13;;;;;;;13.77;9.53;;;14.80;99.90;14.00;100703;;;;593270;242;24078;-76
2023/09/29 03:09:40;;;;;;;12.97;9.77;;;14.70;99.90;14.00;100696;;;;592973;242;24051;-76
2023/09/29 03:12:08;;;;;;;15.83;8.43;;;14.70;99.90;14.00;100695;;;;592958;239;24103;-76
2023/09/29 03:14:36;;;;;;;12.23;9.90;;;14.60;99.90;13.90;100694;;;;592900;239;24087;-76
2023/09/29 03:17:05;;;;;;;12.50;9.60;;;14.60;99.90;13.90;100694;;;;580749;245;24058;-76
2023/09/29 03:19:32;;;;;;;15.03;9.80;;;14.60;99.90;13.90;100698;;;;592923;242;24135;-76
2023/09/29 03:22:01;;;;;;;13.33;9.87;;;14.50;99.90;13.80;100695;;;;581657;245;24071;-77
2023/09/29 03:24:30;;;;;;;12.23;9.17;;;14.50;99.90;13.80;100687;;;;594717;241;24107;-75
2023/09/29 03:26:59;;;;;;;11.10;8.77;;;14.50;99.90;13.70;100691;;;;582083;244;24055;-76
2023/09/29 03:29:29;;;;;;;15.03;8.83;;;14.40;99.90;13.70;100691;;;;594128;241;24057;-76
2023/09/29 03:31:57;;;;;;;18.23;9.60;;;14.40;99.90;13.70;100689;;;;581659;245;24289;-76
2023/09/29 03:34:25;;;;;;;13.57;10.13;;;14.40;99.90;13.60;100682;;;;593955;242;25088;-75
2023/09/29 03:36:53;;;;;;;15.83;9.33;;;14.30;99.90;13.60;100692;;;;595339;239;24071;-76
2023/09/29 03:39:21;;;;;;;15.50;9.70;;;14.30;99.90;13.60;100686;;;;589557;242;24085;-75
2023/09/29 03:41:51;;;;;;;17.77;10.67;;;14.20;99.90;13.60;100683;;;;582847;246;24100;-76
2023/09/29 03:44:17;;;;;;;15.67;10.17;;;14.20;99.90;13.60;100684;;;;595011;241;24070;-76
2023/09/29 03:46:46;;;;;;;13.87;10.47;;;14.20;99.90;13.60;100679;;;;589331;244;24088;-75
2023/09/29 03:49:14;;;;;;;15.63;10.47;;;14.20;99.90;13.60;100676;;;;582846;246;24073;-76
2023/09/29 03:51:44;;;;;;;17.93;11.67;;;14.20;99.90;13.50;100675;;;;582484;244;24228;-76
2023/09/29 03:54:11;;;;;;;14.80;11.73;;;14.20;99.90;13.50;100664;;;;582394;244;24125;-76
2023/09/29 03:56:39;;;;;;;16.43;11.67;;;14.10;99.90;13.50;100672;;;;593412;242;24035;-75
2023/09/29 03:59:08;;;;;;;20.03;11.63;;;14.10;99.90;13.40;100665;;;;594356;239;24040;-75
2023/09/29 04:01:36;;;;;;;15.77;10.80;;;14.00;99.90;13.30;100666;;;;588445;243;24103;-76
2023/09/29 04:04:04;;;;;;;13.47;9.80;;;14.00;99.90;13.30;100665;;;;582229;246;24094;-76
2023/09/29 04:06:32;;;;;;;12.90;9.43;;;13.90;99.90;13.20;100656;;;;592949;239;24107;-75
2023/09/29 04:09:01;;;;;;;13.67;10.70;;;13.90;99.90;13.10;100672;;;;593089;236;24094;-77
2023/09/29 04:11:29;;;;;;;15.87;10.47;;;13.80;99.90;13.00;100664;;;;594278;239;24075;-76
2023/09/29 04:13:56;;;;;;;17.90;10.97;;;13.70;99.90;12.90;100665;;;;588738;243;24079;-74
2023/09/29 04:16:25;;;;;;;13.27;10.13;;;13.60;99.90;12.90;100659;;;;582197;246;24136;-76
2023/09/29 04:18:53;;;;;;;14.90;9.63;;;13.50;99.90;12.80;100662;;;;582067;240;24110;-76
2023/09/29 04:21:22;;;;;;;17.23;9.73;;;13.50;99.90;12.80;100667;;;;593024;239;25087;-75
2023/09/29 04:23:50;;;;;;;15.83;10.93;;;13.50;99.90;12.90;100661;;;;593332;239;24050;-76
2023/09/29 04:26:19;;;;;;;15.03;9.90;;;13.50;99.90;12.80;100660;;;;594635;239;24079;-77
2023/09/29 04:28:46;;;;;;;17.17;11.33;;;13.40;99.90;12.80;100653;;;;588449;244;24104;-77
2023/09/29 04:31:14;;;;;;;12.17;10.43;;;13.40;99.90;12.70;100660;;;;582471;240;24089;-77
2023/09/29 04:33:43;;;;;;;12.30;10.30;;;13.30;99.90;12.60;100659;;;;582857;244;24065;-77
2023/09/29 04:36:11;;;;;;;13.50;10.23;;;13.30;99.90;12.60;100653;;;;594264;241;24054;-76
2023/09/29 04:38:41;;;;;;;12.17;9.97;;;13.30;99.90;12.60;100665;;;;595329;239;24063;-76
2023/09/29 04:41:07;;;;;;;16.23;9.97;;;13.20;99.90;12.50;100662;;;;589216;243;24121;-76
2023/09/29 04:43:35;;;;;;;17.97;10.33;;;13.20;99.90;12.50;100655;;;;582892;245;24097;-76
2023/09/29 04:46:04;;;;;;;16.70;9.90;;;13.20;99.90;12.50;100652;;;;593561;241;24040;-76
2023/09/29 04:48:32;;;;;;;16.17;10.03;;;13.20;99.90;12.50;100647;;;;582659;242;24164;-77
2023/09/29 04:51:01;;;;;;;18.20;10.03;;;13.10;99.90;12.50;100636;;;;584566;241;24023;-76
2023/09/29 04:53:29;;;;;;;24.60;10.43;;;13.10;99.90;12.50;100632;;;;579153;244;24077;-75
2023/09/29 04:55:57;;;;;;;15.97;10.17;;;13.10;99.90;12.50;100628;;;;572409;246;24088;-75
2023/09/29 04:58:25;;;;;;;14.63;10.63;;;13.10;99.90;12.50;100629;;;;584824;242;24106;-76
2023/09/29 05:00:53;;;;;;;20.63;10.57;;;13.20;99.90;12.50;100628;;;;584722;241;25100;-75
2023/09/29 05:03:21;;;;;;;14.80;10.03;;;13.20;99.90;12.60;100632;;;;578799;244;24050;-76
2023/09/29 05:05:51;;;;;;;18.33;10.73;;;13.20;99.90;12.60;100640;;;;571994;246;24130;-76
2023/09/29 05:08:18;;;;;;;17.33;10.57;;;13.20;99.90;12.60;100638;;;;578421;246;24113;-76
2023/09/29 05:10:46;;;;;;;15.37;11.07;;;13.20;99.90;12.60;100642;;;;583486;244;24117;-76
2023/09/29 05:13:15;;;;;;;18.33;10.70;;;13.20;99.90;12.60;100642;;;;585232;242;24078;-76
2023/09/29 05:15:42;;;;;;;19.43;10.97;;;13.20;99.90;12.60;100639;;;;584357;241;24042;-76
2023/09/29 05:18:10;;;;;;;14.43;9.77;;;13.20;99.90;12.60;100639;;;;578848;244;24055;-76
2023/09/29 05:20:38;;;;;;;23.47;10.83;;;13.20;99.90;12.60;100638;;;;572128;246;24034;-76
2023/09/29 05:23:06;;;;;;;18.67;10.93;;;13.30;99.90;12.70;100635;;;;593075;241;25103;-77
2023/09/29 05:25:34;;;;;;;15.00;10.40;;;13.30;99.90;12.70;100635;;;;578560;244;24093;-76
2023/09/29 05:28:03;;;;;;;18.73;11.17;;;13.30;99.90;12.80;100640;;;;571821;246;24070;-77
2023/09/29 05:30:30;;;;;;;23.33;10.10;;;13.50;99.90;12.90;100639;;;;578107;246;24149;-77
2023/09/29 05:32:59;;;;;;;20.43;10.30;;;13.50;99.90;12.90;100634;;;;583042;244;24085;-77
2023/09/29 05:35:28;;;;;;;16.90;10.97;;;13.70;99.90;13.00;100639;;;;582958;244;24093;-77
2023/09/29 05:37:57;;;;;;;19.27;10.20;;;13.80;99.90;13.20;100636;;;;582270;242;24040;-76
2023/09/29 05:40:25;;;;;;;13.70;10.23;;;13.90;99.90;13.30;100641;;;;584559;242;24043;-77
2023/09/29 05:42:54;;;;;;;16.87;11.30;;;14.00;99.90;13.40;100633;;;;584234;241;24015;-76
2023/09/29 05:45:22;;;;;;;18.60;10.80;;;14.10;99.90;13.50;100634;;;;579104;243;24085;-77
2023/09/29 05:47:51;;;;;;;14.67;10.97;;;14.40;99.90;13.80;100631;;;;573172;246;24068;-77
2023/09/29 05:50:20;;;;;;;25.33;9.77;;;15.10;99.90;14.70;100629;;;;585689;242;24026;-76
2023/09/29 05:52:48;;;;;;;20.33;9.67;;;16.30;99.90;16.10;100630;;;;571540;247;24101;-75
2023/09/29 05:55:17;;;;;;;14.57;9.87;;;17.70;99.90;17.60;100634;;;;571359;247;24054;-76
2023/09/29 05:57:46;;;;;;;10.93;8.80;;;19.30;99.90;19.30;100639;;;;583148;242;24107;-76
2023/09/29 06:00:14;;;;;;;13.63;9.60;;;19.20;99.90;20.80;100633;;;;571408;247;23046;-75
2023/09/29 06:02:42;;;;;;;22.43;10.40;;;20.80;99.90;22.00;100634;;;;594700;241;24015;-76
2023/09/29 06:05:10;;;;;;;21.70;10.73;;;23.40;99.90;23.30;100639;;;;584605;241;25104;-76
2023/09/29 06:07:39;;;;;;;13.37;9.30;;;24.60;99.90;24.40;100639;;;;579096;244;24046;-77
2023/09/29 06:10:07;;;;;;;18.03;9.80;;;24.60;99.90;25.40;100632;;;;571871;246;24115;-77
2023/09/29 06:12:35;;;;;;;14.43;9.30;;;25.60;99.90;25.80;100639;;;;571830;247;23096;-77
2023/09/29 06:15:06;;;;;;;19.83;10.20;;;26.30;97.80;26.00;100636;;;;582892;242;23104;-77
2023/09/29 06:17:31;;;;;;;22.77;9.23;;;26.60;95.90;26.30;100644;;;;593306;241;23085;-77
2023/09/29 06:19:58;;;;;;;19.10;11.50;;;26.80;94.40;26.80;100643;;;;579087;244;23103;-77
2023/09/29 06:22:26;;;;;;;12.27;9.80;;;27.10;92.70;27.50;100643;;;;572174;246;24113;-77
2023/09/29 06:24:54;;;;;;;20.17;9.52;;;27.80;91.70;28.30;100646;;;;584836;242;23072;-77
2023/09/29 06:27:22;;;;;;;19.98;9.60;;;28.50;90.10;29.20;100643;;;;582219;242;23043;-77
2023/09/29 06:29:50;;;;;;;20.15;10.32;;;29.40;86.50;29.90;100644;;;;570653;247;23061;-77
2023/09/29 06:32:18;;;;;;;19.30;9.93;;;30.20;82.50;30.30;100641;;;;582234;242;23130;-77
2023/09/29 06:34:46;;;;;;;19.73;9.70;;;30.60;78.10;30.40;100646;;;;570577;247;23065;-77
2023/09/29 06:37:14;;;;;;;15.02;9.80;;;30.80;75.50;30.50;100654;;;;582174;242;24018;-77
2023/09/29 06:39:42;;;;;;;13.90;9.20;;;31.00;73.10;30.90;100653;;;;570366;247;24122;-78
2023/09/29 06:42:10;;;;;;;14.40;10.00;;;31.20;71.80;31.50;100650;;;;582161;242;23028;-77
2023/09/29 06:44:38;;;;;;;22.62;10.50;;;31.80;69.60;32.10;100661;;;;583994;241;23094;-78
2023/09/29 06:47:06;;;;;;;19.55;9.45;;;32.30;67.60;32.90;100660;;;;578676;244;23111;-77
2023/09/29 06:49:34;;;;;;;20.00;10.60;;;33.00;65.30;33.50;100659;;;;571693;246;23145;-77
2023/09/29 06:52:02;;;;;;;13.20;9.40;;;33.70;63.30;34.10;100661;;;;593069;241;24040;-77
2023/09/29 06:54:29;;;;;;;17.15;10.20;;;34.30;61.20;34.70;100663;;;;578901;244;24118;-78
2023/09/29 06:56:57;;;;;;;16.27;9.77;;;34.80;59.60;35.20;100660;;;;581146;245;23074;-78
2023/09/29 06:59:25;;;;;;;25.67;9.98;;;35.50;58.20;35.90;100663;;;;585313;241;23096;-77
2023/09/29 07:01:55;;;;;;;15.10;9.75;;;36.10;57.50;36.50;100662;;;;579290;243;23114;-77
2023/09/29 07:04:21;;;;;;;25.12;9.02;;;36.70;55.50;36.90;100666;;;;575143;246;23079;-76
2023/09/29 07:06:49;;;;;;;14.20;8.65;;;37.10;54.10;37.40;100676;;;;585283;242;23141;-77
2023/09/29 07:09:17;;;;;;;19.48;10.80;;;37.60;53.10;37.80;100681;;;;577552;242;34931;-77
2023/09/29 07:11:45;;;;;;;16.42;9.18;;;38.00;52.40;38.10;100683;;;;584908;241;23036;-77
2023/09/29 07:14:13;;;;;;;17.80;10.18;;;38.40;51.40;38.50;100688;;;;579234;244;23083;-77
2023/09/29 07:16:42;;;;;;;17.65;9.80;;;38.80;51.00;39.10;100694;;;;572311;246;23064;-77
2023/09/29 07:19:09;;;;;;;11.95;9.20;;;39.40;50.20;39.60;100697;;;;585265;241;23072;-77
2023/09/29 07:21:37;;;;;;;20.08;9.57;;;39.90;49.30;40.20;100689;;;;583519;244;23119;-77
2023/09/29 07:24:08;;;;;;;25.05;9.80;;;40.50;48.60;40.60;100700;;;;570124;243;23123;-77
2023/09/29 07:26:32;;;;;;;26.35;10.02;;;40.90;47.90;41.10;100700;;;;573987;246;23074;-77
2023/09/29 07:29:01;;;;;;;19.58;9.27;;;41.40;47.20;41.50;100696;;;;569786;246;23092;-77
2023/09/29 07:31:38;;;;;;;15.25;9.15;;;41.80;46.70;41.80;100703;;;;579048;246;23069;-76
2023/09/29 07:34:05;;;;;;;13.85;9.45;;;42.10;45.80;41.80;100703;;;;585191;242;23025;-77
2023/09/29 07:36:35;;;;;;;12.05;8.65;;;42.10;45.40;41.50;100699;;;;582329;242;23052;-77
2023/09/29 07:39:01;;;;;;;17.60;8.48;;;42.00;45.40;41.20;100697;;;;570561;247;23113;-76
2023/09/29 07:41:29;;;;;;;13.98;8.48;;;41.80;45.10;41.00;100703;;;;582275;242;23061;-77
2023/09/29 07:43:57;;;;;;;11.68;9.00;;;41.60;45.40;41.20;100699;;;;570369;247;23080;-77
2023/09/29 07:46:25;;;;;;;11.25;8.07;;;41.60;45.10;41.30;100696;;;;582355;242;23028;-77
2023/09/29 07:48:53;;;;;;;13.80;8.77;;;41.80;44.80;41.30;100693;;;;570397;247;23079;-77
2023/09/29 07:51:24;;;;;;;19.08;8.43;;;41.80;44.90;41.30;100695;;;;584679;242;23128;-77
2023/09/29 07:53:49;;;;;;;15.63;7.53;;;41.80;45.10;41.60;100698;;;;570475;247;23058;-77
2023/09/29 07:56:17;;;;;;;9.95;8.02;;;42.00;45.00;41.70;100702;;;;582551;242;24050;-77
2023/09/29 07:58:44;;;;;;;13.65;8.23;;;42.20;44.60;42.00;100699;;;;570466;247;23092;-78
2023/09/29 08:01:12;;;;;;;15.35;7.87;;;42.50;44.50;42.40;100686;;;;582105;242;23138;-77
2023/09/29 08:03:42;;;;;;;13.68;7.78;;;42.80;44.50;42.70;100691;;;;570626;247;23107;-77
2023/09/29 08:06:08;;;;;;;14.23;7.97;;;43.20;44.00;42.70;100683;;;;582257;242;23052;-77
2023/09/29 08:08:36;;;;;;;14.00;7.90;;;43.30;43.50;42.40;100693;;;;571294;246;23180;-78
2023/09/29 08:11:05;;;;;;;15.98;7.25;;;42.80;43.10;42.00;100690;;;;583762;242;23035;-77
2023/09/29 08:13:34;;;;;;;11.93;7.68;;;42.80;43.10;41.80;100690;;;;571439;247;24097;-77
2023/09/29 08:16:01;;;;;;;8.82;7.43;;;42.60;43.80;41.80;100693;;;;583286;242;23058;-77
2023/09/29 08:18:29;;;;;;;10.55;7.53;;;42.50;44.00;41.80;100694;;;;579973;244;23054;-77
2023/09/29 08:20:58;;;;;;;9.43;6.93;;;42.50;44.10;41.80;100698;;;;583041;242;23049;-77
2023/09/29 08:23:30;;;;;;;10.77;7.28;;;42.60;44.10;41.80;100703;;;;571125;247;23043;-77
2023/09/29 08:25:54;;;;;;;14.35;7.40;;;42.60;43.80;41.70;100697;;;;583053;242;24072;-77
2023/09/29 08:28:22;;;;;;;10.85;7.10;;;42.50;43.90;41.90;100693;;;;570933;247;23055;-78
2023/09/29 08:30:53;;;;;;;11.25;7.28;;;42.60;43.90;42.10;100699;;;;582555;242;23053;-78
2023/09/29 08:33:18;;;;;;;13.43;7.03;;;42.80;43.10;42.10;100692;;;;574384;246;23137;-77
2023/09/29 08:35:45;;;;;;;13.50;6.90;;;42.90;43.60;42.30;100698;;;;571692;247;23070;-77
2023/09/29 08:38:14;;;;;;;10.45;6.90;;;43.10;43.40;42.60;100691;;;;582605;239;23063;-78
2023/09/29 08:40:44;;;;;;;10.85;6.57;;;43.30;43.10;43.10;100683;;;;571203;247;23081;-78
2023/09/29 08:43:12;;;;;;;10.98;7.03;;;43.70;42.40;43.60;100696;;;;574620;245;23064;-78
2023/09/29 08:45:37;;;;;;;11.98;7.28;;;44.30;42.60;44.10;100696;;;;593649;239;23041;-79
2023/09/29 08:48:11;;;;;;;15.68;7.07;;;44.80;42.00;44.60;100694;;;;578636;244;23085;-79
2023/09/29 08:50:33;;;;;;;11.23;6.82;;;45.40;41.40;45.00;100692;;;;574137;246;23060;-79
2023/09/29 08:53:01;;;;;;;11.95;7.00;;;45.90;40.90;45.20;100696;;;;574796;246;23111;-77
2023/09/29 08:55:33;;;;;;;11.57;6.70;;;46.20;40.60;45.50;100684;;;;584781;242;23043;-78
2023/09/29 08:58:00;;;;;;;11.38;6.43;;;46.60;40.10;45.60;100688;;;;584450;242;23039;-78
2023/09/29 09:00:26;;;;;;;10.98;6.37;;;46.80;39.80;45.60;100691;;;;582652;245;23078;-78
2023/09/29 09:02:54;;;;;;;7.85;6.43;;;46.90;39.90;45.70;100690;;;;582567;246;23058;-78
2023/09/29 09:05:23;;;;;;;11.95;6.40;;;47.00;39.00;45.60;100695;;;;582322;242;23036;-78
2023/09/29 09:07:50;;;;;;;10.30;7.25;;;46.80;39.20;45.50;100694;;;;570454;247;23151;-78
2023/09/29 09:10:18;;;;;;;10.82;6.75;;;46.80;39.10;45.30;100687;;;;574204;246;23153;-77
2023/09/29 09:12:46;;;;;;;7.40;6.47;;;46.70;39.00;45.20;100685;;;;567764;248;23064;-78
2023/09/29 09:15:14;;;;;;;8.10;6.70;;;46.50;39.60;45.00;100682;;;;584893;241;23041;-78
2023/09/29 09:17:44;;;;;;;7.18;6.43;;;46.30;39.60;44.60;100678;;;;583493;242;23156;-77
2023/09/29 09:20:13;;;;;;;8.70;5.57;;;45.40;39.60;43.90;100680;;;;583302;239;23043;-77
2023/09/29 09:22:42;;;;;;;8.82;5.97;;;45.30;39.50;42.50;100679;;;;571808;247;24121;-78
2023/09/29 09:25:11;;;;;;;9.48;6.43;;;44.30;40.20;41.00;100678;;;;583627;242;23079;-78
2023/09/29 09:27:41;;;;;;;13.68;6.10;;;41.70;43.10;40.00;100676;;;;571663;247;24065;-77
2023/09/29 09:30:06;;;;;;;15.65;5.93;;;40.90;44.20;39.40;100678;;;;594178;240;23081;-77
2023/09/29 09:32:34;;;;;;;7.65;5.43;;;40.80;44.10;39.10;100673;;;;571194;247;23053;-77
2023/09/29 09:35:02;;;;;;;12.18;5.07;;;40.40;44.90;39.40;100666;;;;582914;242;23088;-77
2023/09/29 09:37:30;;;;;;;10.57;5.32;;;40.50;44.40;39.50;100672;;;;571228;247;23048;-78
2023/09/29 09:40:01;;;;;;;7.20;5.45;;;40.50;44.80;39.70;100666;;;;582701;242;24090;-77
2023/09/29 09:42:29;;;;;;;8.77;5.12;;;40.70;44.10;39.70;100664;;;;570744;247;23060;-78
2023/09/29 09:44:59;;;;;;;11.48;5.43;;;40.80;44.10;39.50;100659;;;;582690;242;23064;-77
2023/09/29 09:47:27;;;;;;;18.35;6.35;;;40.80;44.00;39.30;100664;;;;579984;244;23056;-78
2023/09/29 09:49:56;;;;;;;7.50;5.70;;;40.20;45.10;38.70;100660;;;;578940;244;24109;-78
2023/09/29 09:52:29;;;;;;;6.47;5.60;;;40.10;44.30;38.10;100657;;;;570103;246;23090;-78
2023/09/29 09:54:58;;;;;;;13.10;6.22;;;39.60;45.10;37.40;100659;;;;584478;241;23059;-78
2023/09/29 09:57:37;;;;;;;11.75;5.87;;;39.00;45.40;36.60;100655;;;;578911;244;24106;-77
2023/09/29 10:00:11;;;;;;;9.07;5.68;;;38.20;46.20;36.30;100650;;;;574086;246;23072;-77
2023/09/29 10:02:38;;;;;;;28.85;7.78;;;37.70;47.40;35.90;100651;;;;573328;246;23186;-76
2023/09/29 10:05:03;;;;;;;20.10;6.80;;;37.20;47.30;35.80;100647;;;;584497;241;23052;-78
2023/09/29 10:07:31;;;;;;;10.93;6.78;;;37.00;48.10;35.80;100646;;;;570979;247;24108;-77
2023/09/29 10:10:00;;;;;;;7.50;5.68;;;36.90;49.00;35.70;100638;;;;578466;244;23076;-77
2023/09/29 10:12:27;;;;;;;7.47;5.47;;;36.90;48.70;35.60;100641;;;;572132;246;23082;-77
2023/09/29 10:14:59;;;;;;;11.95;5.53;;;36.70;48.70;35.80;100643;;;;594179;242;24073;-77
2023/09/29 10:17:23;;;;;;;9.02;5.47;;;36.80;48.30;35.90;100638;;;;570411;247;23104;-78
2023/09/29 10:19:52;;;;;;;13.60;6.43;;;37.00;48.60;36.00;100637;;;;582567;242;23032;-77
2023/09/29 10:22:25;;;;;;;13.98;5.35;;;37.10;47.90;35.70;100634;;;;570761;247;23108;-77
2023/09/29 10:24:59;;;;;;;6.72;5.40;;;36.90;48.20;35.00;100629;;;;582403;242;23081;-78
2023/09/29 10:27:31;;;;;;;13.57;6.20;;;35.60;49.60;34.30;100638;;;;565846;247;35098;-77
2023/09/29 10:30:16;;;;;;;6.53;5.40;;;35.10;50.60;33.90;100630;;;;569436;246;23120;-77
2023/09/29 10:32:43;;;;;;;10.38;5.40;;;35.00;50.50;33.60;100628;;;;594576;239;23084;-78
2023/09/29 10:35:18;;;;;;;6.12;5.32;;;34.50;51.30;33.20;100622;;;;579621;243;23072;-77
2023/09/29 10:37:45;;;;;;;9.88;5.15;;;34.10;51.10;32.80;100621;;;;574750;246;23079;-77
2023/09/29 10:40:21;;;;;;;11.55;5.53;;;33.10;53.20;32.40;100624;;;;584848;241;23060;-77
2023/09/29 10:42:54;;;;;;;17.12;6.47;;;33.10;53.20;32.00;100621;;;;576899;244;23068;-77
2023/09/29 10:45:30;;;;;;;14.45;5.80;;;32.60;54.00;31.50;100616;;;;572076;246;24148;-77
2023/09/29 10:47:54;;;;;;;12.77;5.53;;;32.10;54.60;31.10;100618;;;;584944;242;23090;-77
2023/09/29 10:50:22;;;;;;;11.55;5.57;;;31.70;55.60;30.60;100617;;;;570484;247;23103;-76
2023/09/29 10:52:51;;;;;;;12.52;5.22;;;31.20;55.90;30.10;100609;;;;582403;242;23058;-76
2023/09/29 10:55:18;;;;;;;10.30;5.50;;;30.60;56.90;29.70;100608;;;;570705;247;23077;-78
2023/09/29 10:57:48;;;;;;;10.55;6.10;;;30.20;57.80;29.40;100607;;;;582793;242;24023;-76
2023/09/29 11:00:14;;;;;;;10.32;5.70;;;29.80;58.60;29.10;100603;;;;580126;246;23125;-75
2023/09/29 11:02:42;;;;;;;11.35;6.10;;;29.50;59.80;28.90;100606;;;;574335;246;23070;-76
2023/09/29 11:05:10;;;;;;;5.65;5.15;;;29.20;60.30;28.50;100600;;;;574456;244;23162;-77
2023/09/29 11:07:50;;;;;;;12.10;6.70;;;29.00;61.20;28.20;100596;;;;584946;242;24069;-76